Time;durP1;ratioP1;P1;durP2;ratioP2;P2;SDS_P1;SDS_P2;PMS_P1;PMS_P2;Temp;Humidity;BMP_temperature;BMP_pressure;BME280_temperature;BME280_humidity;BME280_pressure;Samples;Min_cycle;Max_cycle;Signal;HPM_P1;HPM_P2
2024/02/05 17:34:37;;;;;;;22.58;4.60;;;11.20;67.00;;;;;;7704651;19;20371;-76
2024/02/05 17:37:09;;;;;;;23.35;5.28;;;10.90;67.00;;;;;;7712374;19;20007;-76
2024/02/05 17:39:45;;;;;;;19.10;4.45;;;11.00;67.80;;;;;;7699049;19;20018;-74
2024/02/05 17:42:19;;;;;;;15.52;4.15;;;11.10;66.60;;;;;;7658800;19;20077;-75
2024/02/05 17:44:51;;;;;;;;;;;11.20;65.80;;;;;;7659457;19;20464;-75
2024/02/05 17:47:24;;;;;;;13.70;4.68;;;11.40;65.90;;;;;;7655141;19;19971;-76
2024/02/05 17:49:56;;;;;;;24.70;4.55;;;11.30;65.40;;;;;;7652496;19;20106;-75
2024/02/05 17:52:28;;;;;;;18.08;4.65;;;11.30;65.40;;;;;;7654072;19;20121;-76
2024/02/05 17:55:02;;;;;;;24.63;5.45;;;11.30;65.10;;;;;;7650395;19;20058;-75
2024/02/05 17:57:34;;;;;;;17.50;4.55;;;11.50;64.80;;;;;;7648817;19;20018;-79
2024/02/05 18:00:07;;;;;;;14.00;3.95;;;11.50;64.50;;;;;;7636115;19;20047;-74
2024/02/05 18:02:39;;;;;;;15.75;5.03;;;11.50;65.00;;;;;;7641131;19;20259;-76
2024/02/05 18:05:12;;;;;;;22.55;5.32;;;11.30;65.40;;;;;;7653545;19;20011;-74
2024/02/05 18:07:45;;;;;;;23.83;4.78;;;11.30;66.00;;;;;;7654332;19;20766;-75
2024/02/05 18:10:17;;;;;;;17.77;4.65;;;11.20;65.60;;;;;;7648467;19;20089;-75
2024/02/05 18:12:49;;;;;;;16.40;4.82;;;11.30;65.50;;;;;;7651358;19;20010;-75
2024/02/05 18:15:22;;;;;;;20.42;4.85;;;11.20;65.70;;;;;;7636513;19;20079;-74
2024/02/05 18:17:56;;;;;;;20.55;4.78;;;11.20;65.80;;;;;;7650044;19;20010;-76
2024/02/05 18:20:29;;;;;;;15.50;4.28;;;11.20;65.80;;;;;;7649168;19;20022;-76
2024/02/05 18:23:03;;;;;;;15.27;4.07;;;11.20;65.20;;;;;;7650716;19;20052;-76
2024/02/05 18:25:36;;;;;;;21.27;4.00;;;11.30;64.70;;;;;;7649690;19;20006;-75
2024/02/05 18:28:09;;;;;;;27.30;4.83;;;11.30;65.00;;;;;;7648019;19;20575;-75
2024/02/05 18:30:41;;;;;;;21.42;4.07;;;11.30;64.80;;;;;;7637795;19;20007;-74
2024/02/05 18:33:14;;;;;;;16.58;4.13;;;11.30;64.70;;;;;;7646189;19;20824;-77
2024/02/05 18:35:47;;;;;;;14.35;4.95;;;11.20;64.80;;;;;;7650012;19;20094;-78
2024/02/05 18:38:20;;;;;;;16.90;5.03;;;11.20;64.90;;;;;;7653340;19;20014;-75
2024/02/05 18:40:57;;;;;;;19.75;4.43;;;11.20;64.40;;;;;;7649851;19;20020;-73
2024/02/05 18:43:31;;;;;;;15.48;3.78;;;11.20;64.20;;;;;;7648609;19;20010;-75
2024/02/05 18:46:04;;;;;;;14.85;4.18;;;11.10;64.40;;;;;;7617987;19;20679;-75
2024/02/05 18:48:37;;;;;;;;;;;11.10;64.00;;;;;;7615091;19;20018;-74
2024/02/05 18:51:11;;;;;;;12.27;4.18;;;11.20;63.70;;;;;;7614748;19;19974;-76
2024/02/05 18:53:43;;;;;;;10.30;3.83;;;11.10;63.60;;;;;;7620038;19;20018;-75
2024/02/05 18:56:16;;;;;;;21.98;4.47;;;11.00;63.70;;;;;;7620096;19;20010;-75
2024/02/05 18:58:48;;;;;;;16.98;3.90;;;11.00;63.60;;;;;;7617619;19;20042;-76
2024/02/05 19:01:22;;;;;;;16.10;4.20;;;11.00;63.10;;;;;;7622352;19;20018;-75
2024/02/05 19:03:55;;;;;;;24.77;5.68;;;11.00;63.80;;;;;;7619964;19;20479;-75
2024/02/05 19:06:27;;;;;;;19.02;4.60;;;10.90;63.50;;;;;;7619258;19;20023;-75
2024/02/05 19:09:00;;;;;;;29.48;4.80;;;10.90;63.40;;;;;;7619132;19;20021;-75
2024/02/05 19:11:33;;;;;;;29.80;6.72;;;10.90;63.60;;;;;;7627869;19;20027;-74
2024/02/05 19:14:05;;;;;;;22.52;5.63;;;10.90;63.50;;;;;;7619664;19;20022;-76
2024/02/05 19:16:38;;;;;;;22.53;5.60;;;10.90;63.30;;;;;;7628606;19;20029;-74
2024/02/05 19:19:10;;;;;;;23.85;5.93;;;10.90;63.40;;;;;;7615914;19;20014;-75
2024/02/05 19:21:43;;;;;;;18.00;6.65;;;10.80;63.40;;;;;;7624020;19;20025;-76
2024/02/05 19:24:16;;;;;;;24.53;6.70;;;10.80;63.70;;;;;;7616612;19;20022;-76
2024/02/05 19:26:48;;;;;;;24.50;6.25;;;10.80;63.90;;;;;;7622598;19;20098;-75
2024/02/05 19:29:21;;;;;;;23.35;6.88;;;10.80;63.70;;;;;;7608528;19;20016;-75
2024/02/05 19:31:57;;;;;;;21.00;5.80;;;10.70;64.10;;;;;;7618172;19;20015;-77
2024/02/05 19:34:29;;;;;;;27.20;5.80;;;10.70;64.20;;;;;;7619504;19;20692;-75
2024/02/05 19:37:02;;;;;;;15.65;4.85;;;10.60;64.30;;;;;;7615068;19;20105;-76
2024/02/05 19:39:34;;;;;;;18.10;4.63;;;10.70;64.30;;;;;;7618635;19;20018;-75
2024/02/05 19:42:06;;;;;;;12.88;4.07;;;10.60;64.30;;;;;;7614401;19;20031;-78
2024/02/05 19:44:42;;;;;;;17.55;5.10;;;10.60;64.50;;;;;;7598437;19;20800;-73
2024/02/05 19:47:14;;;;;;;24.23;5.68;;;10.50;65.10;;;;;;7597316;19;20507;-74
2024/02/05 19:49:46;;;;;;;25.25;5.55;;;10.50;65.00;;;;;;7606237;19;20018;-75
2024/02/05 19:52:19;;;;;;;21.25;5.55;;;10.50;64.50;;;;;;7610078;19;20130;-76
2024/02/05 19:54:52;;;;;;;17.27;5.90;;;10.50;64.70;;;;;;7605928;19;20952;-76
2024/02/05 19:57:25;;;;;;;15.65;4.07;;;10.50;64.90;;;;;;7595532;19;20021;-75
2024/02/05 19:59:57;;;;;;;15.80;4.72;;;10.60;64.50;;;;;;7603955;19;20794;-76
2024/02/05 20:02:29;;;;;;;20.85;4.65;;;10.50;64.70;;;;;;7607199;19;20475;-74
2024/02/05 20:05:02;;;;;;;24.90;4.38;;;10.40;64.90;;;;;;7608411;19;20018;-75
2024/02/05 20:07:35;;;;;;;24.85;7.25;;;10.40;64.90;;;;;;7606124;19;20010;-77
2024/02/05 20:10:08;;;;;;;20.97;5.03;;;10.40;65.10;;;;;;7606686;19;20014;-76
2024/02/05 20:12:40;;;;;;;17.50;4.40;;;10.30;65.50;;;;;;7609136;19;20018;-76
2024/02/05 20:15:13;;;;;;;15.40;4.47;;;10.30;65.70;;;;;;7598800;19;20025;-76
2024/02/05 20:17:45;;;;;;;18.17;5.18;;;10.10;66.30;;;;;;7612419;19;20011;-76
2024/02/05 20:20:18;;;;;;;20.23;5.43;;;10.00;66.60;;;;;;7603315;19;20010;-74
2024/02/05 20:22:50;;;;;;;25.33;5.77;;;10.00;67.00;;;;;;7604807;19;20018;-75
2024/02/05 20:25:23;;;;;;;23.00;6.35;;;9.90;67.20;;;;;;7607993;19;20017;-75
2024/02/05 20:27:56;;;;;;;;;;;9.90;67.40;;;;;;7614572;19;20357;-76
2024/02/05 20:30:29;;;;;;;21.35;6.80;;;9.80;67.70;;;;;;7600835;19;19926;-75
2024/02/05 20:33:02;;;;;;;24.02;6.43;;;9.80;68.10;;;;;;7604741;19;20372;-73
2024/02/05 20:35:34;;;;;;;25.55;6.90;;;9.70;68.40;;;;;;7605839;19;20018;-76
2024/02/05 20:38:07;;;;;;;21.27;6.28;;;9.60;68.60;;;;;;7596796;19;20026;-75
2024/02/05 20:40:39;;;;;;;20.52;6.45;;;9.60;68.80;;;;;;7587273;19;20098;-75
2024/02/05 20:43:12;;;;;;;23.53;6.83;;;9.50;69.10;;;;;;7592083;19;20014;-75
2024/02/05 20:45:45;;;;;;;22.38;6.93;;;9.40;69.50;;;;;;7601781;19;20015;-75
2024/02/05 20:48:17;;;;;;;18.65;6.30;;;9.40;69.50;;;;;;7594891;19;20044;-75
2024/02/05 20:50:50;;;;;;;21.20;6.38;;;9.40;69.50;;;;;;7606612;19;20022;-76
2024/02/05 20:53:24;;;;;;;21.27;6.55;;;9.40;70.30;;;;;;7592985;19;20033;-74
2024/02/05 20:55:56;;;;;;;;;;;9.40;69.90;;;;;;7599315;19;20010;-75
2024/02/05 20:58:29;;;;;;;16.25;5.38;;;9.40;70.00;;;;;;7606178;19;19919;-75
2024/02/05 21:01:01;;;;;;;19.70;4.80;;;9.30;70.80;;;;;;7609894;19;20014;-76
2024/02/05 21:03:34;;;;;;;18.15;4.70;;;9.10;70.50;;;;;;7615657;19;20022;-76
2024/02/05 21:06:07;;;;;;;20.20;6.25;;;9.10;70.80;;;;;;7608516;19;20007;-77
2024/02/05 21:08:40;;;;;;;17.10;5.65;;;9.10;70.60;;;;;;7606818;19;20017;-75
2024/02/05 21:11:14;;;;;;;26.35;6.55;;;9.00;70.80;;;;;;7604306;19;20779;-74
2024/02/05 21:13:46;;;;;;;22.88;5.70;;;9.00;71.10;;;;;;7590815;19;20047;-75
